Detalii statie Enten Pioneer Afumati [ENTEN002]

Toti senzorii

Date Temperatura solului [C]Precipitatii [mm]Viteza vantului [m/s]Voltaj baterie [mV]Leaf Wetness [Min]HC Air temperature [C]HC Relative humidity [%]Punctul de roua [C]
medieminmaxsumasumaultimatimpmedieminmaxmediemediemin
2017-06-25 06:14:20 66.44 66.42 66.46 0.00 0.63 8.13 0.00 18.28 17.96 18.72 87.87 16.23
2017-06-25 07:14:19 66.44 66.40 66.51 0.00 3.50 8.15 0.00 20.34 19.43 21.22 83.09 17.36
2017-06-25 08:14:20 66.52 66.49 66.57 0.00 3.97 8.17 0.00 22.75 21.78 23.87 75.78 18.24
2017-06-25 09:14:21 66.54 66.52 66.58 0.00 4.17 8.20 0.00 26.01 24.99 27.00 65.99 19.16
2017-06-25 10:14:20 66.60 66.57 66.63 0.00 4.56 8.20 0.00 28.28 27.72 29.00 59.15 19.55
2017-06-25 11:14:19 66.62 66.61 66.63 0.00 4.75 8.22 0.00 29.99 29.48 30.34 53.16 19.41
2017-06-25 12:14:20 66.64 66.56 66.67 0.00 4.24 8.45 0.00 31.15 30.68 31.55 49.29 19.25
2017-06-25 13:14:21 66.65 66.63 66.69 0.00 3.23 8.27 0.00 32.09 31.78 32.33 43.12 17.98
2017-06-25 14:14:19 66.72 66.65 66.82 0.00 3.16 8.23 0.00 32.81 32.38 33.08 44.01 18.94
2017-06-25 15:14:20 66.74 66.70 66.77 0.00 2.58 8.21 0.00 33.21 32.85 33.44 41.97 18.55
2017-06-25 16:14:21 66.82 66.80 66.86 0.00 2.70 8.22 0.00 33.44 32.88 33.84 42.06 18.78
2017-06-25 17:14:19 66.93 66.90 66.96 0.00 1.68 8.22 0.00 33.53 33.30 33.70 41.44 18.64
2017-06-25 18:14:20 67.03 66.96 67.07 0.00 1.59 8.22 0.00 32.77 32.02 33.44 43.35 18.66
2017-06-25 19:14:19 67.10 67.04 67.15 0.00 0.39 8.21 0.00 30.31 29.44 31.24 46.98 17.72
2017-06-25 20:14:20 67.13 67.12 67.14 0.00 0.00 8.21 0.00 28.23 27.45 28.97 54.88 18.29
2017-06-25 21:14:21 67.17 67.16 67.18 0.00 0.00 8.19 0.00 26.07 24.93 26.95 62.59 18.31
2017-06-25 22:14:19 67.23 67.17 67.28 0.00 0.00 8.17 0.00 23.60 23.14 24.10 73.40 18.56
2017-06-25 23:14:20 67.24 67.20 67.28 0.00 0.00 8.27 0.00 22.14 21.52 22.71 78.71 18.27
2017-06-26 00:14:21 67.27 67.26 67.28 0.00 0.00 8.11 0.00 20.82 20.25 21.28 82.12 17.65
2017-06-26 01:14:19 67.28 67.25 67.30 0.00 0.00 8.10 3.86 19.66 19.50 19.86 84.66 17.00
2017-06-26 02:14:20 67.28 67.19 67.33 0.00 0.00 8.08 5.43 19.51 19.46 19.63 87.50 17.38
2017-06-26 03:14:21 67.23 67.20 67.25 0.00 0.00 8.07 8.14 19.27 19.12 19.47 88.60 17.34
2017-06-26 04:14:19 67.25 67.18 67.28 0.00 0.00 8.06 7.36 18.61 17.90 19.03 87.79 16.54
2017-06-26 05:14:20 67.22 67.20 67.24 0.00 0.00 8.06 7.14 17.61 17.39 17.83 89.08 15.79
2017-06-26 06:14:21 67.21 67.21 67.22 0.00 0.00 8.12 8.21 18.22 17.86 18.78 91.81 16.87
2017-06-26 07:14:19 67.18 67.17 67.23 0.00 0.00 8.19 0.00 20.08 19.15 21.12 88.79 18.17
2017-06-26 08:14:20 67.16 67.09 67.23 0.00 0.70 8.18 0.00 23.11 21.94 24.34 76.20 18.66
2017-06-26 09:14:21 67.20 67.17 67.21 0.00 1.15 8.19 0.00 26.94 25.57 28.26 62.58 19.18
2017-06-26 10:14:19 67.17 67.10 67.20 0.00 0.89 8.20 0.00 29.48 29.04 30.07 56.64 19.96
2017-06-26 11:14:20 67.24 67.21 67.26 0.00 1.78 8.21 0.00 31.15 30.65 31.58 54.24 20.80
2017-06-26 12:14:21 67.18 67.15 67.21 0.00 2.08 8.25 0.00 32.32 31.92 32.59 49.96 20.55
2017-06-26 13:14:20 67.27 67.24 67.29 0.00 2.09 8.21 0.00 32.82 32.74 32.86 46.94 19.99
2017-06-26 14:14:19 67.30 67.28 67.33 0.00 1.24 8.21 0.00 34.09 33.22 34.89 42.19 19.39
2017-06-26 15:14:20 67.34 67.25 67.40 0.00 1.63 8.22 0.00 35.22 35.14 35.47 37.58 18.58
2017-06-26 16:14:21 67.42 67.38 67.51 0.00 1.58 8.46 0.00 35.31 35.13 35.74 36.75 18.30
2017-06-26 17:14:19 67.56 67.50 67.64 0.00 1.41 8.23 72.00 35.15 34.82 35.38 34.94 17.36
2017-06-26 18:14:20 67.68 67.55 67.74 0.00 0.78 8.45 100.00 33.33 32.55 34.03 37.12 16.72
2017-06-26 19:14:21 67.75 67.68 67.78 0.00 0.00 8.37 0.00 31.38 30.73 32.00 47.58 18.86
2017-06-26 20:14:19 67.82 67.80 67.83 0.00 0.00 8.39 0.00 29.41 28.50 30.42 55.90 19.68
2017-06-26 21:14:20 67.82 67.80 67.84 0.00 1.51 8.36 0.00 27.12 26.08 28.06 63.60 19.60
2017-06-26 22:14:21 67.88 67.86 67.90 0.00 4.12 8.22 0.00 24.96 24.45 25.60 70.84 19.30
2017-06-26 23:14:19 67.88 67.81 67.91 0.00 2.30 8.15 0.00 24.56 24.34 24.74 70.76 18.89
2017-06-27 00:14:20 67.88 67.83 67.90 0.00 4.51 8.13 0.00 23.60 23.12 23.98 75.12 18.93
2017-06-27 01:14:19 67.86 67.78 67.89 0.00 2.44 8.11 0.00 22.07 21.75 22.60 79.26 18.31
2017-06-27 02:14:19 67.83 67.77 67.88 0.00 0.45 8.09 0.00 21.16 20.93 21.44 80.82 17.74
2017-06-27 03:14:20 67.81 67.79 67.87 0.00 0.04 8.08 0.64 20.56 20.47 20.79 83.86 17.74
2017-06-27 04:14:21 67.79 67.75 67.83 0.00 0.01 8.07 3.86 19.82 19.28 20.34 84.95 17.22
2017-06-27 05:14:19 67.79 67.78 67.80 0.00 0.00 8.07 7.29 19.10 19.02 19.22 87.24 16.92
2017-06-27 06:14:20 67.76 67.74 67.77 0.00 0.00 8.04 6.79 18.79 18.74 18.84 87.65 16.70